sensor_id;sensor_type;location;lat;lon;timestamp;pressure;altitude;pressure_sealevel;temperature;humidity
55289;BME280;41154;45.394;5.734;2023-09-30T00:01:01;97794.47;;;16.68;100.00
55289;BME280;41154;45.394;5.734;2023-09-30T00:03:28;97792.84;;;16.73;100.00
55289;BME280;41154;45.394;5.734;2023-09-30T00:05:54;97791.75;;;16.84;100.00
55289;BME280;41154;45.394;5.734;2023-09-30T00:08:20;97787.97;;;16.85;100.00
55289;BME280;41154;45.394;5.734;2023-09-30T00:10:45;97792.59;;;16.84;100.00
55289;BME280;41154;45.394;5.734;2023-09-30T00:13:12;97786.91;;;16.70;100.00
55289;BME280;41154;45.394;5.734;2023-09-30T00:15:38;97787.41;;;16.62;100.00
55289;BME280;41154;45.394;5.734;2023-09-30T00:18:04;97788.50;;;16.51;100.00
55289;BME280;41154;45.394;5.734;2023-09-30T00:20:30;97791.44;;;16.39;100.00
55289;BME280;41154;45.394;5.734;2023-09-30T00:22:56;97781.19;;;16.41;100.00
55289;BME280;41154;45.394;5.734;2023-09-30T00:25:22;97787.94;;;16.39;100.00
55289;BME280;41154;45.394;5.734;2023-09-30T00:27:48;97795.25;;;16.43;100.00
55289;BME280;41154;45.394;5.734;2023-09-30T00:30:14;97792.28;;;16.55;100.00
55289;BME280;41154;45.394;5.734;2023-09-30T00:32:39;97792.03;;;16.57;100.00
55289;BME280;41154;45.394;5.734;2023-09-30T00:35:06;97792.53;;;16.48;100.00
55289;BME280;41154;45.394;5.734;2023-09-30T00:37:40;97788.19;;;16.42;100.00
55289;BME280;41154;45.394;5.734;2023-09-30T00:40:07;97786.88;;;16.55;100.00
55289;BME280;41154;45.394;5.734;2023-09-30T00:42:38;97796.34;;;16.47;100.00
55289;BME280;41154;45.394;5.734;2023-09-30T00:45:04;97779.00;;;16.48;100.00
55289;BME280;41154;45.394;5.734;2023-09-30T00:47:31;97774.94;;;16.46;100.00
55289;BME280;41154;45.394;5.734;2023-09-30T00:49:57;97780.59;;;16.34;100.00
55289;BME280;41154;45.394;5.734;2023-09-30T00:52:23;97780.06;;;16.32;100.00
55289;BME280;41154;45.394;5.734;2023-09-30T00:54:49;97778.97;;;16.17;100.00
55289;BME280;41154;45.394;5.734;2023-09-30T00:57:17;97785.19;;;16.23;100.00
55289;BME280;41154;45.394;5.734;2023-09-30T00:59:45;97774.63;;;16.22;100.00
55289;BME280;41154;45.394;5.734;2023-09-30T01:02:10;97776.50;;;16.06;100.00
55289;BME280;41154;45.394;5.734;2023-09-30T01:04:36;97776.75;;;16.04;100.00
55289;BME280;41154;45.394;5.734;2023-09-30T01:07:03;97788.09;;;15.96;100.00
55289;BME280;41154;45.394;5.734;2023-09-30T01:09:31;97775.91;;;15.88;100.00
55289;BME280;41154;45.394;5.734;2023-09-30T01:11:57;97775.38;;;15.91;100.00
55289;BME280;41154;45.394;5.734;2023-09-30T01:14:31;97775.38;;;15.91;100.00
55289;BME280;41154;45.394;5.734;2023-09-30T01:16:57;97783.19;;;15.88;100.00
55289;BME280;41154;45.394;5.734;2023-09-30T01:19:24;97779.94;;;15.80;100.00
55289;BME280;41154;45.394;5.734;2023-09-30T01:21:57;97777.19;;;15.75;100.00
55289;BME280;41154;45.394;5.734;2023-09-30T01:24:28;97779.31;;;15.73;100.00
55289;BME280;41154;45.394;5.734;2023-09-30T01:26:55;97772.56;;;15.71;100.00
55289;BME280;41154;45.394;5.734;2023-09-30T01:29:21;97784.00;;;15.88;100.00
55289;BME280;41154;45.394;5.734;2023-09-30T01:31:48;97787.53;;;15.94;100.00
55289;BME280;41154;45.394;5.734;2023-09-30T01:34:15;97785.63;;;15.89;100.00
55289;BME280;41154;45.394;5.734;2023-09-30T01:36:42;97787.25;;;15.80;100.00
55289;BME280;41154;45.394;5.734;2023-09-30T01:39:13;97781.22;;;15.73;100.00
55289;BME280;41154;45.394;5.734;2023-09-30T01:41:40;97780.69;;;15.71;100.00
55289;BME280;41154;45.394;5.734;2023-09-30T01:44:07;97772.53;;;15.66;100.00
55289;BME280;41154;45.394;5.734;2023-09-30T01:46:33;97775.47;;;15.64;100.00
55289;BME280;41154;45.394;5.734;2023-09-30T01:48:59;97778.44;;;15.62;100.00
55289;BME280;41154;45.394;5.734;2023-09-30T01:51:25;97780.38;;;15.67;100.00
55289;BME280;41154;45.394;5.734;2023-09-30T01:53:51;97789.09;;;15.79;100.00
55289;BME280;41154;45.394;5.734;2023-09-30T01:56:17;97793.47;;;15.86;100.00
55289;BME280;41154;45.394;5.734;2023-09-30T01:58:43;97789.16;;;15.90;100.00
55289;BME280;41154;45.394;5.734;2023-09-30T02:01:09;97787.31;;;16.06;100.00
55289;BME280;41154;45.394;5.734;2023-09-30T02:03:35;97787.63;;;16.20;100.00
55289;BME280;41154;45.394;5.734;2023-09-30T02:06:01;97785.50;;;16.32;100.00
55289;BME280;41154;45.394;5.734;2023-09-30T02:08:27;97783.84;;;16.26;100.00
55289;BME280;41154;45.394;5.734;2023-09-30T02:10:53;97775.69;;;16.15;100.00
55289;BME280;41154;45.394;5.734;2023-09-30T02:13:19;97780.31;;;16.10;100.00
55289;BME280;41154;45.394;5.734;2023-09-30T02:15:45;97766.78;;;16.15;100.00
55289;BME280;41154;45.394;5.734;2023-09-30T02:18:13;97761.13;;;16.32;100.00
55289;BME280;41154;45.394;5.734;2023-09-30T02:20:39;97758.69;;;16.30;100.00
55289;BME280;41154;45.394;5.734;2023-09-30T02:23:10;97772.44;;;16.18;100.00
55289;BME280;41154;45.394;5.734;2023-09-30T02:25:39;97768.91;;;16.08;100.00
55289;BME280;41154;45.394;5.734;2023-09-30T02:28:06;97774.03;;;15.99;100.00
55289;BME280;41154;45.394;5.734;2023-09-30T02:30:32;97767.53;;;15.90;100.00
55289;BME280;41154;45.394;5.734;2023-09-30T02:32:59;97765.34;;;15.92;100.00
55289;BME280;41154;45.394;5.734;2023-09-30T02:35:25;97754.81;;;15.95;100.00
55289;BME280;41154;45.394;5.734;2023-09-30T02:37:51;97755.72;;;16.27;100.00
55289;BME280;41154;45.394;5.734;2023-09-30T02:40:18;97748.09;;;16.08;100.00
55289;BME280;41154;45.394;5.734;2023-09-30T02:42:44;97755.88;;;15.89;100.00
55289;BME280;41154;45.394;5.734;2023-09-30T02:45:11;97745.81;;;15.79;100.00
55289;BME280;41154;45.394;5.734;2023-09-30T02:47:38;97737.41;;;15.71;100.00
55289;BME280;41154;45.394;5.734;2023-09-30T02:50:08;97737.63;;;15.64;100.00
55289;BME280;41154;45.394;5.734;2023-09-30T02:52:36;97743.81;;;15.59;100.00
55289;BME280;41154;45.394;5.734;2023-09-30T02:55:04;97748.97;;;15.61;100.00
55289;BME280;41154;45.394;5.734;2023-09-30T02:57:31;97753.03;;;15.58;100.00
55289;BME280;41154;45.394;5.734;2023-09-30T02:59:57;97739.25;;;15.60;100.00
55289;BME280;41154;45.394;5.734;2023-09-30T03:02:24;97739.25;;;15.60;100.00
55289;BME280;41154;45.394;5.734;2023-09-30T03:04:50;97746.94;;;15.89;100.00
55289;BME280;41154;45.394;5.734;2023-09-30T03:07:18;97747.38;;;15.60;100.00
55289;BME280;41154;45.394;5.734;2023-09-30T03:09:45;97749.72;;;15.46;100.00
55289;BME280;41154;45.394;5.734;2023-09-30T03:12:12;97738.06;;;15.40;100.00
55289;BME280;41154;45.394;5.734;2023-09-30T03:14:39;97738.34;;;15.44;100.00
55289;BME280;41154;45.394;5.734;2023-09-30T03:17:05;97739.13;;;15.39;100.00
55289;BME280;41154;45.394;5.734;2023-09-30T03:19:37;97741.97;;;15.70;100.00
55289;BME280;41154;45.394;5.734;2023-09-30T03:22:03;97738.25;;;15.81;100.00
55289;BME280;41154;45.394;5.734;2023-09-30T03:24:31;97743.66;;;15.81;100.00
55289;BME280;41154;45.394;5.734;2023-09-30T03:26:57;97739.81;;;15.67;100.00
55289;BME280;41154;45.394;5.734;2023-09-30T03:29:23;97740.91;;;15.71;100.00
55289;BME280;41154;45.394;5.734;2023-09-30T03:31:49;97737.38;;;15.66;100.00
55289;BME280;41154;45.394;5.734;2023-09-30T03:34:14;97736.28;;;15.67;100.00
55289;BME280;41154;45.394;5.734;2023-09-30T03:36:42;97732.22;;;15.64;100.00
55289;BME280;41154;45.394;5.734;2023-09-30T03:39:08;97747.91;;;15.67;100.00
55289;BME280;41154;45.394;5.734;2023-09-30T03:41:34;97742.25;;;15.69;100.00
55289;BME280;41154;45.394;5.734;2023-09-30T03:44:02;97748.97;;;15.61;100.00
55289;BME280;41154;45.394;5.734;2023-09-30T03:46:28;97743.03;;;15.59;100.00
55289;BME280;41154;45.394;5.734;2023-09-30T03:48:54;97750.59;;;15.62;100.00
55289;BME280;41154;45.394;5.734;2023-09-30T03:51:21;97753.84;;;15.64;100.00
55289;BME280;41154;45.394;5.734;2023-09-30T03:53:51;97750.75;;;15.93;100.00
55289;BME280;41154;45.394;5.734;2023-09-30T03:56:16;97748.59;;;16.00;100.00
55289;BME280;41154;45.394;5.734;2023-09-30T03:58:44;97736.13;;;15.89;100.00
55289;BME280;41154;45.394;5.734;2023-09-30T04:01:10;97737.72;;;15.85;100.00
55289;BME280;41154;45.394;5.734;2023-09-30T04:03:37;97732.88;;;15.87;100.00
55289;BME280;41154;45.394;5.734;2023-09-30T04:06:05;97743.09;;;15.74;100.00
55289;BME280;41154;45.394;5.734;2023-09-30T04:08:30;97738.75;;;15.73;100.00
55289;BME280;41154;45.394;5.734;2023-09-30T04:11:04;97743.09;;;15.74;100.00
55289;BME280;41154;45.394;5.734;2023-09-30T04:13:30;97734.97;;;15.74;100.00
55289;BME280;41154;45.394;5.734;2023-09-30T04:15:57;97738.25;;;15.81;100.00
55289;BME280;41154;45.394;5.734;2023-09-30T04:18:25;97746.41;;;15.87;100.00
55289;BME280;41154;45.394;5.734;2023-09-30T04:20:54;97740.66;;;15.73;100.00
55289;BME280;41154;45.394;5.734;2023-09-30T04:23:19;97737.94;;;15.73;100.00
55289;BME280;41154;45.394;5.734;2023-09-30T04:25:48;97738.22;;;15.76;100.00
55289;BME280;41154;45.394;5.734;2023-09-30T04:28:15;97723.63;;;15.72;100.00
55289;BME280;41154;45.394;5.734;2023-09-30T04:30:45;97723.88;;;15.76;100.00
55289;BME280;41154;45.394;5.734;2023-09-30T04:33:11;97725.75;;;15.70;100.00
55289;BME280;41154;45.394;5.734;2023-09-30T04:35:38;97722.50;;;15.68;100.00
55289;BME280;41154;45.394;5.734;2023-09-30T04:38:04;97715.22;;;15.74;100.00
55289;BME280;41154;45.394;5.734;2023-09-30T04:40:30;97718.25;;;15.77;100.00
55289;BME280;41154;45.394;5.734;2023-09-30T04:42:56;97707.69;;;15.81;100.00
55289;BME280;41154;45.394;5.734;2023-09-30T04:45:24;97717.72;;;15.80;100.00
55289;BME280;41154;45.394;5.734;2023-09-30T04:47:54;97726.09;;;15.84;100.00
55289;BME280;41154;45.394;5.734;2023-09-30T04:50:23;97738.25;;;15.81;100.00
55289;BME280;41154;45.394;5.734;2023-09-30T04:52:52;97722.59;;;15.89;100.00
55289;BME280;41154;45.394;5.734;2023-09-30T04:55:19;97726.97;;;16.10;100.00
55289;BME280;41154;45.394;5.734;2023-09-30T04:57:45;97726.16;;;16.05;100.00
55289;BME280;41154;45.394;5.734;2023-09-30T05:00:17;97734.53;;;15.93;100.00
55289;BME280;41154;45.394;5.734;2023-09-30T05:02:44;97731.78;;;15.88;100.00
55289;BME280;41154;45.394;5.734;2023-09-30T05:05:11;97735.06;;;15.90;100.00
55289;BME280;41154;45.394;5.734;2023-09-30T05:07:36;97743.69;;;15.92;100.00
55289;BME280;41154;45.394;5.734;2023-09-30T05:10:03;97749.38;;;15.90;100.00
55289;BME280;41154;45.394;5.734;2023-09-30T05:12:32;97743.97;;;15.90;100.00
55289;BME280;41154;45.394;5.734;2023-09-30T05:14:59;97752.91;;;15.91;100.00
55289;BME280;41154;45.394;5.734;2023-09-30T05:17:25;97751.81;;;15.92;100.00
55289;BME280;41154;45.394;5.734;2023-09-30T05:19:51;97747.25;;;15.97;100.00
55289;BME280;41154;45.394;5.734;2023-09-30T05:22:17;97743.97;;;15.95;100.00
55289;BME280;41154;45.394;5.734;2023-09-30T05:24:47;97757.25;;;15.97;100.00
55289;BME280;41154;45.394;5.734;2023-09-30T05:27:13;97761.03;;;15.96;100.00
55289;BME280;41154;45.394;5.734;2023-09-30T05:29:39;97768.59;;;15.94;100.00
55289;BME280;41154;45.394;5.734;2023-09-30T05:32:04;97762.63;;;15.87;100.00
55289;BME280;41154;45.394;5.734;2023-09-30T05:34:30;97765.34;;;15.87;100.00
55289;BME280;41154;45.394;5.734;2023-09-30T05:36:56;97775.38;;;15.91;100.00
55289;BME280;41154;45.394;5.734;2023-09-30T05:39:22;97774.25;;;15.87;100.00
55289;BME280;41154;45.394;5.734;2023-09-30T05:41:47;97781.31;;;15.88;100.00
55289;BME280;41154;45.394;5.734;2023-09-30T05:44:13;97788.63;;;15.93;100.00
55289;BME280;41154;45.394;5.734;2023-09-30T05:46:41;97777.81;;;15.93;100.00
55289;BME280;41154;45.394;5.734;2023-09-30T05:49:09;97784.28;;;15.92;100.00
55289;BME280;41154;45.394;5.734;2023-09-30T05:51:40;97785.94;;;15.98;100.00
55289;BME280;41154;45.394;5.734;2023-09-30T05:54:07;97783.81;;;16.15;100.00
55289;BME280;41154;45.394;5.734;2023-09-30T05:56:39;97771.91;;;16.22;100.00
55289;BME280;41154;45.394;5.734;2023-09-30T05:59:06;97774.13;;;16.35;100.00
55289;BME280;41154;45.394;5.734;2023-09-30T06:01:33;97784.38;;;16.17;100.00
55289;BME280;41154;45.394;5.734;2023-09-30T06:03:59;97777.91;;;16.24;100.00
55289;BME280;41154;45.394;5.734;2023-09-30T06:06:28;97779.81;;;16.39;100.00
55289;BME280;41154;45.394;5.734;2023-09-30T06:08:56;97783.63;;;16.48;100.00
55289;BME280;41154;45.394;5.734;2023-09-30T06:11:24;97783.91;;;16.57;100.00
55289;BME280;41154;45.394;5.734;2023-09-30T06:13:53;97789.28;;;16.51;100.00
55289;BME280;41154;45.394;5.734;2023-09-30T06:16:19;97796.38;;;16.63;100.00
55289;BME280;41154;45.394;5.734;2023-09-30T06:18:46;97789.88;;;16.69;100.00
55289;BME280;41154;45.394;5.734;2023-09-30T06:21:15;97797.16;;;16.53;100.00
55289;BME280;41154;45.394;5.734;2023-09-30T06:26:52;97794.72;;;16.41;100.00
55289;BME280;41154;45.394;5.734;2023-09-30T06:29:18;97790.94;;;16.52;100.00
55289;BME280;41154;45.394;5.734;2023-09-30T06:31:45;97787.69;;;16.71;100.00
55289;BME280;41154;45.394;5.734;2023-09-30T06:34:10;97796.34;;;16.73;100.00
55289;BME280;41154;45.394;5.734;2023-09-30T06:36:37;97797.44;;;16.77;100.00
55289;BME280;41154;45.394;5.734;2023-09-30T06:39:11;97793.94;;;16.82;100.00
55289;BME280;41154;45.394;5.734;2023-09-30T06:41:37;97802.59;;;16.74;100.00
55289;BME280;41154;45.394;5.734;2023-09-30T06:44:05;97802.59;;;16.84;100.00
55289;BME280;41154;45.394;5.734;2023-09-30T06:46:31;97796.13;;;16.80;100.00
55289;BME280;41154;45.394;5.734;2023-09-30T06:48:57;97805.88;;;16.86;100.00
55289;BME280;41154;45.394;5.734;2023-09-30T06:51:23;97815.34;;;17.09;100.00
55289;BME280;41154;45.394;5.734;2023-09-30T06:53:49;97821.03;;;17.07;100.00
55289;BME280;41154;45.394;5.734;2023-09-30T06:56:15;97817.53;;;17.07;100.00
55289;BME280;41154;45.394;5.734;2023-09-30T06:58:41;97819.13;;;17.18;100.00
55289;BME280;41154;45.394;5.734;2023-09-30T07:01:07;97824.78;;;17.58;100.00
55289;BME280;41154;45.394;5.734;2023-09-30T07:03:32;97834.06;;;17.31;100.00
55289;BME280;41154;45.394;5.734;2023-09-30T07:05:58;97838.09;;;17.39;100.00
55289;BME280;41154;45.394;5.734;2023-09-30T07:08:27;97846.16;;;17.70;100.00
55289;BME280;41154;45.394;5.734;2023-09-30T07:10:55;97838.28;;;17.89;100.00
55289;BME280;41154;45.394;5.734;2023-09-30T07:13:22;97841.47;;;18.01;100.00
55289;BME280;41154;45.394;5.734;2023-09-30T07:15:47;97847.69;;;18.12;100.00
55289;BME280;41154;45.394;5.734;2023-09-30T07:18:38;97855.03;;;18.11;100.00
55289;BME280;41154;45.394;5.734;2023-09-30T07:21:04;97848.75;;;18.16;100.00
55289;BME280;41154;45.394;5.734;2023-09-30T07:23:30;97848.16;;;18.24;100.00
55289;BME280;41154;45.394;5.734;2023-09-30T07:25:57;97845.97;;;18.31;100.00
55289;BME280;41154;45.394;5.734;2023-09-30T07:28:23;97846.50;;;18.39;100.00
55289;BME280;41154;45.394;5.734;2023-09-30T07:30:48;97844.06;;;18.32;100.00
55289;BME280;41154;45.394;5.734;2023-09-30T07:33:14;97846.59;;;18.63;100.00
55289;BME280;41154;45.394;5.734;2023-09-30T07:35:40;97841.84;;;18.84;100.00
55289;BME280;41154;45.394;5.734;2023-09-30T07:38:07;97846.97;;;18.46;100.00
55289;BME280;41154;45.394;5.734;2023-09-30T07:40:32;97854.63;;;18.89;100.00
55289;BME280;41154;45.394;5.734;2023-09-30T07:42:58;97848.53;;;19.02;100.00
55289;BME280;41154;45.394;5.734;2023-09-30T07:45:24;97849.28;;;19.66;100.00
55289;BME280;41154;45.394;5.734;2023-09-30T07:47:50;97859.72;;;20.13;100.00
55289;BME280;41154;45.394;5.734;2023-09-30T07:50:16;97863.19;;;19.94;100.00
55289;BME280;41154;45.394;5.734;2023-09-30T07:52:43;97858.97;;;19.83;100.00
55289;BME280;41154;45.394;5.734;2023-09-30T07:55:09;97868.41;;;19.61;100.00
55289;BME280;41154;45.394;5.734;2023-09-30T07:57:35;97869.72;;;20.41;100.00
55289;BME280;41154;45.394;5.734;2023-09-30T08:00:02;97873.63;;;20.11;100.00
55289;BME280;41154;45.394;5.734;2023-09-30T08:02:35;97865.41;;;19.92;100.00
55289;BME280;41154;45.394;5.734;2023-09-30T08:05:02;97864.09;;;20.52;100.00
55289;BME280;41154;45.394;5.734;2023-09-30T08:07:28;97870.28;;;20.38;100.00
55289;BME280;41154;45.394;5.734;2023-09-30T08:09:54;97878.91;;;20.45;100.00
55289;BME280;41154;45.394;5.734;2023-09-30T08:12:20;97886.19;;;20.50;100.00
55289;BME280;41154;45.394;5.734;2023-09-30T08:14:46;97887.69;;;20.61;100.00
55289;BME280;41154;45.394;5.734;2023-09-30T08:17:12;97887.84;;;20.51;100.00
55289;BME280;41154;45.394;5.734;2023-09-30T08:19:37;97879.97;;;20.69;100.00
55289;BME280;41154;45.394;5.734;2023-09-30T08:22:03;97884.53;;;21.11;100.00
55289;BME280;41154;45.394;5.734;2023-09-30T08:24:29;97883.50;;;21.59;100.00
55289;BME280;41154;45.394;5.734;2023-09-30T08:26:55;97886.97;;;22.20;100.00
55289;BME280;41154;45.394;5.734;2023-09-30T08:29:22;97873.38;;;22.93;100.00
55289;BME280;41154;45.394;5.734;2023-09-30T08:31:48;97870.44;;;23.49;97.73
55289;BME280;41154;45.394;5.734;2023-09-30T08:34:16;97875.63;;;24.22;92.60
55289;BME280;41154;45.394;5.734;2023-09-30T08:36:42;97877.41;;;24.27;91.92
55289;BME280;41154;45.394;5.734;2023-09-30T08:39:08;97889.31;;;24.80;89.48
55289;BME280;41154;45.394;5.734;2023-09-30T08:41:38;97887.81;;;22.85;99.50
55289;BME280;41154;45.394;5.734;2023-09-30T08:44:04;97886.81;;;24.52;92.61
55289;BME280;41154;45.394;5.734;2023-09-30T08:46:31;97866.50;;;27.07;77.77
55289;BME280;41154;45.394;5.734;2023-09-30T08:48:58;97871.47;;;26.71;76.96
55289;BME280;41154;45.394;5.734;2023-09-30T08:51:26;97871.16;;;27.61;73.62
55289;BME280;41154;45.394;5.734;2023-09-30T08:53:54;97869.63;;;27.39;74.40
55289;BME280;41154;45.394;5.734;2023-09-30T08:56:27;97867.28;;;27.07;73.03
55289;BME280;41154;45.394;5.734;2023-09-30T08:58:57;97870.66;;;26.11;72.92
55289;BME280;41154;45.394;5.734;2023-09-30T09:01:27;97868.50;;;24.87;77.75
55289;BME280;41154;45.394;5.734;2023-09-30T09:03:53;97871.91;;;22.37;91.65
55289;BME280;41154;45.394;5.734;2023-09-30T09:06:24;97868.84;;;22.89;92.80
55289;BME280;41154;45.394;5.734;2023-09-30T09:08:50;97872.19;;;23.22;85.21
55289;BME280;41154;45.394;5.734;2023-09-30T09:11:17;97864.38;;;22.93;86.40
55289;BME280;41154;45.394;5.734;2023-09-30T09:13:49;97863.84;;;23.27;84.03
55289;BME280;41154;45.394;5.734;2023-09-30T09:16:16;97864.97;;;23.49;86.03
55289;BME280;41154;45.394;5.734;2023-09-30T09:18:45;97855.53;;;23.95;81.67
55289;BME280;41154;45.394;5.734;2023-09-30T09:21:16;97858.00;;;24.14;81.58
55289;BME280;41154;45.394;5.734;2023-09-30T09:23:44;97864.41;;;23.69;78.24
55289;BME280;41154;45.394;5.734;2023-09-30T09:26:29;97854.47;;;23.42;86.58
55289;BME280;41154;45.394;5.734;2023-09-30T09:29:01;97858.59;;;23.94;81.19
55289;BME280;41154;45.394;5.734;2023-09-30T09:31:32;97863.97;;;24.08;78.35
55289;BME280;41154;45.394;5.734;2023-09-30T09:34:00;97860.84;;;22.92;80.00
55289;BME280;41154;45.394;5.734;2023-09-30T09:39:05;97857.16;;;23.11;78.33
55289;BME280;41154;45.394;5.734;2023-09-30T09:41:31;97857.22;;;22.33;85.71
55289;BME280;41154;45.394;5.734;2023-09-30T09:43:58;97852.13;;;22.90;81.50
55289;BME280;41154;45.394;5.734;2023-09-30T09:46:26;97847.22;;;22.78;81.28
55289;BME280;41154;45.394;5.734;2023-09-30T09:48:53;97851.59;;;22.66;80.02
55289;BME280;41154;45.394;5.734;2023-09-30T09:51:20;97843.97;;;23.76;76.85
55289;BME280;41154;45.394;5.734;2023-09-30T09:53:48;97842.41;;;23.52;73.65
55289;BME280;41154;45.394;5.734;2023-09-30T09:56:15;97833.63;;;23.95;71.82
55289;BME280;41154;45.394;5.734;2023-09-30T09:58:42;97838.66;;;23.71;70.20
55289;BME280;41154;45.394;5.734;2023-09-30T10:01:12;97837.25;;;23.50;72.54
55289;BME280;41154;45.394;5.734;2023-09-30T10:03:38;97837.56;;;22.81;74.73
55289;BME280;41154;45.394;5.734;2023-09-30T10:06:05;97834.38;;;22.65;73.06
55289;BME280;41154;45.394;5.734;2023-09-30T10:08:49;97835.16;;;23.02;72.49
55289;BME280;41154;45.394;5.734;2023-09-30T10:11:20;97839.63;;;22.75;73.51
55289;BME280;41154;45.394;5.734;2023-09-30T10:13:58;97842.00;;;22.54;75.20
55289;BME280;41154;45.394;5.734;2023-09-30T10:19:32;97828.19;;;23.19;77.59
55289;BME280;41154;45.394;5.734;2023-09-30T10:22:21;97834.50;;;23.19;76.61
55289;BME280;41154;45.394;5.734;2023-09-30T10:25:33;97838.00;;;23.11;73.30
55289;BME280;41154;45.394;5.734;2023-09-30T10:27:36;97842.84;;;23.14;74.54
55289;BME280;41154;45.394;5.734;2023-09-30T10:30:06;97836.06;;;22.75;78.20
55289;BME280;41154;45.394;5.734;2023-09-30T10:40:51;97813.97;;;23.08;72.80
55289;BME280;41154;45.394;5.734;2023-09-30T10:43:33;97813.69;;;23.41;71.24
55289;BME280;41154;45.394;5.734;2023-09-30T10:46:00;97806.34;;;23.50;72.50
55289;BME280;41154;45.394;5.734;2023-09-30T10:50:58;97807.06;;;22.88;72.05
55289;BME280;41154;45.394;5.734;2023-09-30T10:53:26;97808.47;;;23.62;72.38
55289;BME280;41154;45.394;5.734;2023-09-30T10:56:00;97799.50;;;23.70;70.04
55289;BME280;41154;45.394;5.734;2023-09-30T10:58:46;97805.34;;;23.46;71.34
55289;BME280;41154;45.394;5.734;2023-09-30T11:01:15;97804.13;;;22.84;71.65
55289;BME280;41154;45.394;5.734;2023-09-30T11:03:42;97811.63;;;22.56;70.54
55289;BME280;41154;45.394;5.734;2023-09-30T11:06:14;97803.56;;;22.96;70.01
55289;BME280;41154;45.394;5.734;2023-09-30T11:08:56;97798.28;;;23.00;71.63
55289;BME280;41154;45.394;5.734;2023-09-30T11:11:54;97800.75;;;22.14;73.40
55289;BME280;41154;45.394;5.734;2023-09-30T11:16:51;97795.50;;;22.04;74.84
55289;BME280;41154;45.394;5.734;2023-09-30T11:19:17;97792.25;;;22.16;74.35
55289;BME280;41154;45.394;5.734;2023-09-30T11:21:49;97804.19;;;22.34;72.73
55289;BME280;41154;45.394;5.734;2023-09-30T11:24:16;97810.63;;;22.52;74.52
55289;BME280;41154;45.394;5.734;2023-09-30T11:26:41;97809.66;;;22.20;73.75
55289;BME280;41154;45.394;5.734;2023-09-30T11:31:41;97801.44;;;22.70;78.27
55289;BME280;41154;45.394;5.734;2023-09-30T11:34:08;97789.97;;;23.05;75.61
55289;BME280;41154;45.394;5.734;2023-09-30T11:36:36;97783.03;;;23.07;71.99
55289;BME280;41154;45.394;5.734;2023-09-30T11:39:03;97787.13;;;22.51;72.79
55289;BME280;41154;45.394;5.734;2023-09-30T11:41:36;97788.53;;;21.98;74.45
55289;BME280;41154;45.394;5.734;2023-09-30T11:44:04;97784.41;;;22.00;76.09
55289;BME280;41154;45.394;5.734;2023-09-30T11:46:56;97794.84;;;22.49;76.75
55289;BME280;41154;45.394;5.734;2023-09-30T11:49:40;97795.16;;;22.47;74.66
55289;BME280;41154;45.394;5.734;2023-09-30T11:52:10;97783.94;;;22.94;72.78
55289;BME280;41154;45.394;5.734;2023-09-30T11:54:41;97783.84;;;22.12;74.42
55289;BME280;41154;45.394;5.734;2023-09-30T11:57:12;97785.41;;;22.77;74.78
55289;BME280;41154;45.394;5.734;2023-09-30T11:59:43;97786.22;;;22.55;74.84
55289;BME280;41154;45.394;5.734;2023-09-30T12:02:09;97785.28;;;22.83;74.68
55289;BME280;41154;45.394;5.734;2023-09-30T12:04:36;97785.38;;;22.32;75.30
55289;BME280;41154;45.394;5.734;2023-09-30T12:07:02;97785.16;;;22.29;75.76
55289;BME280;41154;45.394;5.734;2023-09-30T12:09:28;97783.41;;;22.47;77.00
55289;BME280;41154;45.394;5.734;2023-09-30T12:11:55;97779.41;;;22.16;75.72
55289;BME280;41154;45.394;5.734;2023-09-30T12:14:24;97780.00;;;22.41;76.08
55289;BME280;41154;45.394;5.734;2023-09-30T12:16:50;97782.19;;;22.75;76.52
55289;BME280;41154;45.394;5.734;2023-09-30T12:19:19;97787.53;;;23.03;76.23
55289;BME280;41154;45.394;5.734;2023-09-30T12:21:46;97783.59;;;22.73;77.44
55289;BME280;41154;45.394;5.734;2023-09-30T12:24:17;97785.22;;;22.51;78.91
55289;BME280;41154;45.394;5.734;2023-09-30T12:26:47;97782.16;;;22.02;80.76
55289;BME280;41154;45.394;5.734;2023-09-30T12:29:21;97782.28;;;22.48;80.81
55289;BME280;41154;45.394;5.734;2023-09-30T12:31:52;97775.44;;;22.36;82.43
55289;BME280;41154;45.394;5.734;2023-09-30T12:34:18;97782.41;;;22.29;83.54
55289;BME280;41154;45.394;5.734;2023-09-30T12:36:43;97775.81;;;22.43;81.01
55289;BME280;41154;45.394;5.734;2023-09-30T12:39:10;97766.44;;;22.81;78.08
55289;BME280;41154;45.394;5.734;2023-09-30T12:41:37;97761.38;;;23.11;78.35
55289;BME280;41154;45.394;5.734;2023-09-30T12:44:03;97754.72;;;23.35;76.56
55289;BME280;41154;45.394;5.734;2023-09-30T12:46:29;97758.16;;;22.95;77.13
55289;BME280;41154;45.394;5.734;2023-09-30T12:48:56;97745.88;;;23.06;77.69
55289;BME280;41154;45.394;5.734;2023-09-30T12:51:23;97749.97;;;23.18;74.58
55289;BME280;41154;45.394;5.734;2023-09-30T12:53:49;97746.22;;;23.45;76.62
55289;BME280;41154;45.394;5.734;2023-09-30T12:56:14;97751.28;;;22.97;77.23
55289;BME280;41154;45.394;5.734;2023-09-30T12:58:40;97751.34;;;22.84;79.32
55289;BME280;41154;45.394;5.734;2023-09-30T13:01:06;97747.91;;;22.19;81.52
55289;BME280;41154;45.394;5.734;2023-09-30T13:03:33;97744.19;;;22.96;78.70
55289;BME280;41154;45.394;5.734;2023-09-30T13:05:58;97742.22;;;22.88;77.77
55289;BME280;41154;45.394;5.734;2023-09-30T13:08:24;97753.81;;;23.17;77.71
55289;BME280;41154;45.394;5.734;2023-09-30T13:10:51;97750.56;;;22.83;81.02
55289;BME280;41154;45.394;5.734;2023-09-30T13:13:17;97753.84;;;22.49;82.07
55289;BME280;41154;45.394;5.734;2023-09-30T13:15:43;97753.06;;;23.02;81.59
55289;BME280;41154;45.394;5.734;2023-09-30T13:18:09;97742.41;;;23.23;80.01
55289;BME280;41154;45.394;5.734;2023-09-30T13:20:35;97741.41;;;23.10;79.29